Time;durP1;ratioP1;P1;durP2;ratioP2;P2;SDS_P1;SDS_P2;PMS_P1;PMS_P2;Temp;Humidity;BMP_temperature;BMP_pressure;BME280_temperature;BME280_humidity;BME280_pressure;Samples;Min_cycle;Max_cycle;Signal;HPM_P1;HPM_P2
2023/07/04 00:01:12;;;;;;;5.73;2.77;;;;;;;;;;5052501;28;20430;-48
2023/07/04 00:03:39;;;;;;;3.70;2.47;;;;;;;;;;5052658;28;20392;-52
2023/07/04 00:06:10;;;;;;;8.10;3.17;;;;;;;;;;5052445;28;20399;-49
2023/07/04 00:08:37;;;;;;;6.50;3.60;;;;;;;;;;5052520;28;20440;-51
2023/07/04 00:11:04;;;;;;;4.50;3.00;;;;;;;;;;5052303;28;20385;-49
2023/07/04 00:13:31;;;;;;;9.10;3.43;;;;;;;;;;5052419;28;20797;-48
2023/07/04 00:15:57;;;;;;;6.87;3.23;;;;;;;;;;5052657;28;20425;-51
2023/07/04 00:18:24;;;;;;;5.33;3.23;;;;;;;;;;5052208;28;20845;-48
2023/07/04 00:20:54;;;;;;;5.77;3.00;;;;;;;;;;5052057;28;20391;-50
2023/07/04 00:23:27;;;;;;;6.77;2.67;;;;;;;;;;5052325;28;20417;-52
2023/07/04 00:25:54;;;;;;;8.77;3.40;;;;;;;;;;5052175;28;20916;-51
2023/07/04 00:28:21;;;;;;;6.10;2.73;;;;;;;;;;5051728;28;20408;-50
2023/07/04 00:30:47;;;;;;;10.17;3.73;;;;;;;;;;5052427;28;20417;-50
2023/07/04 00:33:13;;;;;;;5.47;3.17;;;;;;;;;;5051914;28;20812;-49
2023/07/04 00:35:39;;;;;;;6.30;2.80;;;;;;;;;;5052120;28;20766;-50
2023/07/04 00:38:05;;;;;;;8.73;3.13;;;;;;;;;;5051964;28;20433;-51
2023/07/04 00:40:31;;;;;;;7.33;3.83;;;;;;;;;;5051791;28;20781;-50
2023/07/04 00:43:03;;;;;;;5.80;3.93;;;;;;;;;;5051942;28;20460;-50
2023/07/04 00:45:31;;;;;;;5.20;2.90;;;;;;;;;;5051806;28;20470;-49
2023/07/04 00:48:00;;;;;;;4.13;2.70;;;;;;;;;;5052018;28;20689;-51
2023/07/04 00:50:29;;;;;;;18.83;4.77;;;;;;;;;;5051592;28;20422;-50
2023/07/04 00:52:56;;;;;;;8.03;3.70;;;;;;;;;;5051747;28;20550;-52
2023/07/04 00:55:22;;;;;;;8.20;3.43;;;;;;;;;;5051704;28;20411;-50
2023/07/04 00:57:49;;;;;;;9.80;3.10;;;;;;;;;;5051705;28;20439;-51
2023/07/04 01:00:19;;;;;;;9.60;3.77;;;;;;;;;;5051288;28;20456;-50
2023/07/04 01:02:48;;;;;;;9.53;4.37;;;;;;;;;;5051295;28;20489;-50
2023/07/04 01:05:23;;;;;;;5.87;3.27;;;;;;;;;;5051037;28;20390;-52
2023/07/04 01:08:19;;;;;;;7.33;3.13;;;;;;;;;;5051411;28;20459;-51
2023/07/04 01:10:46;;;;;;;6.23;3.10;;;;;;;;;;5031000;28;20422;-51
2023/07/04 01:13:28;;;;;;;4.83;2.60;;;;;;;;;;5051446;28;20458;-50
2023/07/04 01:15:54;;;;;;;4.93;2.70;;;;;;;;;;5045802;28;20434;-49
2023/07/04 01:18:23;;;;;;;12.73;3.40;;;;;;;;;;5051311;28;20468;-50
2023/07/04 01:20:49;;;;;;;15.00;3.30;;;;;;;;;;5051215;28;20397;-50
2023/07/04 01:23:27;;;;;;;10.07;3.00;;;;;;;;;;5051329;28;20411;-51
2023/07/04 01:26:02;;;;;;;6.80;2.90;;;;;;;;;;5051463;28;20376;-51
2023/07/04 01:28:29;;;;;;;6.33;2.97;;;;;;;;;;5051334;28;20947;-51
2023/07/04 01:30:56;;;;;;;9.77;3.40;;;;;;;;;;5051078;28;20378;-50
2023/07/04 01:33:22;;;;;;;6.30;2.90;;;;;;;;;;5051679;28;20427;-51
2023/07/04 01:35:48;;;;;;;9.03;3.23;;;;;;;;;;5051120;28;20459;-51
2023/07/04 01:38:14;;;;;;;7.63;3.20;;;;;;;;;;5051281;28;20438;-51
2023/07/04 01:40:42;;;;;;;3.83;3.13;;;;;;;;;;5052567;28;20412;-52
2023/07/04 01:43:08;;;;;;;7.80;2.83;;;;;;;;;;5055409;28;20474;-50
2023/07/04 01:45:34;;;;;;;8.50;3.50;;;;;;;;;;5055233;28;20413;-51
2023/07/04 01:48:00;;;;;;;7.23;3.47;;;;;;;;;;5055168;28;20505;-50
2023/07/04 01:50:26;;;;;;;11.00;3.43;;;;;;;;;;5054766;28;20781;-49
2023/07/04 01:52:52;;;;;;;7.30;3.50;;;;;;;;;;5055101;28;20440;-48
2023/07/04 01:55:18;;;;;;;5.20;3.10;;;;;;;;;;5054971;28;20880;-51
2023/07/04 01:57:44;;;;;;;7.70;3.13;;;;;;;;;;5055210;28;20494;-51
2023/07/04 02:00:12;;;;;;;5.60;3.37;;;;;;;;;;5054809;28;20803;-50
2023/07/04 02:02:38;;;;;;;6.20;2.77;;;;;;;;;;5049611;28;20479;-50
2023/07/04 02:05:05;;;;;;;8.43;3.57;;;;;;;;;;5054802;28;20413;-50
2023/07/04 02:07:31;;;;;;;11.73;3.37;;;;;;;;;;5051657;28;20551;-48
2023/07/04 02:09:57;;;;;;;8.73;4.03;;;;;;;;;;5054530;28;20433;-50
2023/07/04 02:12:23;;;;;;;7.10;3.23;;;;;;;;;;5054675;28;20449;-48
2023/07/04 02:14:49;;;;;;;8.33;3.23;;;;;;;;;;5054805;28;20404;-51
2023/07/04 02:17:15;;;;;;;7.37;3.30;;;;;;;;;;5054642;28;20433;-50
2023/07/04 02:19:41;;;;;;;4.57;2.70;;;;;;;;;;5054496;28;20388;-49
2023/07/04 02:22:07;;;;;;;6.53;3.30;;;;;;;;;;5054661;28;20923;-51
2023/07/04 02:24:33;;;;;;;8.10;3.23;;;;;;;;;;5054472;28;20467;-50
2023/07/04 02:26:59;;;;;;;6.77;2.90;;;;;;;;;;5054391;28;20922;-50
2023/07/04 02:29:25;;;;;;;7.90;2.90;;;;;;;;;;5054266;28;20424;-51
2023/07/04 02:31:51;;;;;;;5.77;3.13;;;;;;;;;;5054505;28;20424;-50
2023/07/04 02:34:17;;;;;;;10.47;3.67;;;;;;;;;;5054325;28;20409;-50
2023/07/04 02:36:43;;;;;;;9.23;3.60;;;;;;;;;;5054525;28;20837;-49
2023/07/04 02:39:09;;;;;;;5.83;3.10;;;;;;;;;;5054357;28;20903;-49
2023/07/04 02:41:35;;;;;;;13.27;4.30;;;;;;;;;;5053900;28;20410;-49
2023/07/04 02:44:01;;;;;;;11.00;3.63;;;;;;;;;;5054177;28;20874;-51
2023/07/04 02:46:27;;;;;;;13.63;3.60;;;;;;;;;;5053809;28;20757;-50
2023/07/04 02:48:53;;;;;;;16.03;4.00;;;;;;;;;;5053992;28;20410;-50
2023/07/04 02:51:19;;;;;;;10.77;3.30;;;;;;;;;;5053498;28;20459;-50
2023/07/04 02:53:45;;;;;;;9.30;3.60;;;;;;;;;;5053961;28;20907;-51
2023/07/04 02:56:11;;;;;;;18.10;3.93;;;;;;;;;;5054078;28;20488;-50
2023/07/04 02:58:37;;;;;;;12.20;3.73;;;;;;;;;;5048227;28;20436;-50
2023/07/04 03:01:04;;;;;;;7.03;3.20;;;;;;;;;;5053555;28;20402;-52
2023/07/04 03:03:31;;;;;;;10.30;3.80;;;;;;;;;;5057797;28;20417;-51
2023/07/04 03:05:57;;;;;;;9.93;3.70;;;;;;;;;;5053805;28;20475;-50
2023/07/04 03:08:23;;;;;;;9.13;3.80;;;;;;;;;;5053717;28;20539;-51
2023/07/04 03:10:50;;;;;;;12.93;3.87;;;;;;;;;;5053923;28;20428;-48
2023/07/04 03:13:15;;;;;;;7.00;3.30;;;;;;;;;;5053610;28;20464;-50
2023/07/04 03:15:42;;;;;;;14.23;4.17;;;;;;;;;;5053443;28;20420;-49
2023/07/04 03:18:08;;;;;;;8.17;3.90;;;;;;;;;;5053575;28;20421;-49
2023/07/04 03:20:34;;;;;;;10.00;3.70;;;;;;;;;;5053324;28;20380;-50
2023/07/04 03:23:00;;;;;;;16.50;3.93;;;;;;;;;;5053501;28;20914;-51
2023/07/04 03:25:26;;;;;;;12.43;3.17;;;;;;;;;;5053594;28;20413;-51
2023/07/04 03:27:52;;;;;;;12.97;3.80;;;;;;;;;;5053292;28;20421;-51
2023/07/04 03:30:18;;;;;;;6.57;3.20;;;;;;;;;;5053053;28;20777;-51
2023/07/04 03:32:44;;;;;;;11.70;3.60;;;;;;;;;;5053294;28;20464;-51
2023/07/04 03:35:10;;;;;;;12.40;3.30;;;;;;;;;;5053292;28;20915;-51
2023/07/04 03:37:37;;;;;;;13.57;4.20;;;;;;;;;;5053194;28;20923;-50
2023/07/04 03:40:08;;;;;;;15.93;3.63;;;;;;;;;;5052972;28;20552;-51
2023/07/04 03:42:39;;;;;;;6.10;3.20;;;;;;;;;;5053106;28;20413;-49
2023/07/04 03:45:06;;;;;;;7.33;3.50;;;;;;;;;;5053077;28;20507;-52
2023/07/04 03:47:32;;;;;;;10.33;3.83;;;;;;;;;;5052833;28;20525;-50
2023/07/04 03:49:58;;;;;;;7.87;3.60;;;;;;;;;;5052746;28;20417;-49
2023/07/04 03:52:25;;;;;;;6.83;3.53;;;;;;;;;;5052806;28;20534;-48
2023/07/04 03:54:51;;;;;;;8.17;3.87;;;;;;;;;;5052869;28;20416;-50
2023/07/04 03:57:18;;;;;;;9.43;4.07;;;;;;;;;;5052597;28;20807;-51
2023/07/04 03:59:44;;;;;;;8.57;3.80;;;;;;;;;;5052692;28;20409;-51
2023/07/04 04:02:10;;;;;;;12.60;4.20;;;;;;;;;;5052817;28;20418;-49
2023/07/04 04:04:39;;;;;;;12.30;3.10;;;;;;;;;;5051986;28;20847;-50
2023/07/04 04:07:07;;;;;;;7.13;3.80;;;;;;;;;;5043455;28;20858;-52
2023/07/04 04:09:33;;;;;;;9.67;4.70;;;;;;;;;;5052493;28;20487;-51
2023/07/04 04:11:59;;;;;;;9.90;4.00;;;;;;;;;;5039349;28;20975;-52
2023/07/04 04:14:25;;;;;;;8.73;3.60;;;;;;;;;;5051358;28;20787;-51
2023/07/04 04:16:52;;;;;;;13.57;4.10;;;;;;;;;;5052297;28;20429;-51
2023/07/04 04:19:18;;;;;;;8.00;3.93;;;;;;;;;;5052351;28;20463;-52
2023/07/04 04:21:44;;;;;;;12.83;4.27;;;;;;;;;;5052166;28;20405;-49
2023/07/04 04:24:10;;;;;;;14.97;3.70;;;;;;;;;;5052450;28;20420;-51
2023/07/04 04:26:39;;;;;;;14.70;4.07;;;;;;;;;;5052007;28;20401;-51
2023/07/04 04:29:07;;;;;;;5.77;3.73;;;;;;;;;;5052308;28;20380;-50
2023/07/04 04:31:37;;;;;;;13.80;3.97;;;;;;;;;;5052144;28;20884;-52
2023/07/04 04:34:03;;;;;;;10.17;3.10;;;;;;;;;;5052152;28;20434;-50
2023/07/04 04:36:30;;;;;;;18.57;5.83;;;;;;;;;;5051901;28;20922;-51
2023/07/04 04:38:56;;;;;;;17.50;4.90;;;;;;;;;;5052259;28;20771;-49
2023/07/04 04:41:22;;;;;;;15.87;4.17;;;;;;;;;;5051648;28;20967;-48
2023/07/04 04:43:49;;;;;;;17.10;4.67;;;;;;;;;;5051873;28;20444;-49
2023/07/04 04:46:17;;;;;;;11.17;3.87;;;;;;;;;;5052046;28;20383;-50
2023/07/04 04:48:43;;;;;;;9.90;4.00;;;;;;;;;;5051813;28;20429;-48
2023/07/04 04:51:10;;;;;;;15.23;4.37;;;;;;;;;;5051662;28;20417;-48
2023/07/04 04:53:39;;;;;;;10.30;4.70;;;;;;;;;;5051537;28;20468;-50
2023/07/04 04:56:05;;;;;;;12.30;4.40;;;;;;;;;;5051759;28;20416;-50
2023/07/04 04:58:31;;;;;;;14.30;4.00;;;;;;;;;;5051587;28;20433;-49
2023/07/04 05:00:58;;;;;;;9.70;3.90;;;;;;;;;;5051298;28;20384;-49
2023/07/04 05:03:25;;;;;;;10.83;4.00;;;;;;;;;;5051146;28;20457;-49
2023/07/04 05:05:51;;;;;;;12.17;4.80;;;;;;;;;;5051483;28;20443;-51
2023/07/04 05:08:17;;;;;;;17.93;5.80;;;;;;;;;;5050946;28;20438;-50
2023/07/04 05:10:43;;;;;;;13.90;4.10;;;;;;;;;;5051012;28;20384;-48
2023/07/04 05:13:09;;;;;;;13.07;4.80;;;;;;;;;;5051004;28;20461;-49
2023/07/04 05:15:36;;;;;;;19.17;4.73;;;;;;;;;;5050743;28;20895;-52
2023/07/04 05:18:01;;;;;;;14.23;4.40;;;;;;;;;;5051072;28;20510;-51
2023/07/04 05:20:28;;;;;;;14.00;4.90;;;;;;;;;;5058948;28;20436;-50
2023/07/04 05:22:56;;;;;;;10.70;4.80;;;;;;;;;;5050985;28;20389;-52
2023/07/04 05:25:24;;;;;;;14.03;5.30;;;;;;;;;;5051452;28;20459;-49
2023/07/04 05:27:51;;;;;;;10.80;4.80;;;;;;;;;;5051480;28;20779;-51
2023/07/04 05:30:17;;;;;;;12.17;3.67;;;;;;;;;;5051045;28;20413;-51
2023/07/04 05:32:43;;;;;;;17.30;5.13;;;;;;;;;;5051245;28;20484;-51
2023/07/04 05:35:09;;;;;;;8.83;4.30;;;;;;;;;;5051290;28;20530;-51
2023/07/04 05:37:35;;;;;;;10.23;3.73;;;;;;;;;;5051087;28;20425;-50
2023/07/04 05:40:01;;;;;;;10.83;4.10;;;;;;;;;;5051309;28;20409;-50
2023/07/04 05:42:28;;;;;;;18.27;4.20;;;;;;;;;;5051222;28;20418;-50
2023/07/04 05:44:54;;;;;;;13.53;5.00;;;;;;;;;;5051222;28;20923;-50
2023/07/04 05:47:20;;;;;;;9.57;4.00;;;;;;;;;;5051100;28;20483;-49
2023/07/04 05:49:46;;;;;;;14.57;4.10;;;;;;;;;;5050671;28;20428;-50
2023/07/04 05:52:11;;;;;;;10.60;4.87;;;;;;;;;;5048049;28;20495;-51
2023/07/04 05:54:37;;;;;;;6.97;4.03;;;;;;;;;;5048034;28;20896;-48
2023/07/04 05:57:04;;;;;;;13.50;4.63;;;;;;;;;;5051061;28;20503;-48
2023/07/04 05:59:30;;;;;;;11.90;4.53;;;;;;;;;;5051024;28;20417;-48
2023/07/04 06:01:59;;;;;;;10.10;3.67;;;;;;;;;;5051532;28;20409;-51
2023/07/04 06:04:25;;;;;;;14.03;5.50;;;;;;;;;;5052368;28;20417;-51
2023/07/04 06:06:53;;;;;;;12.17;4.83;;;;;;;;;;5050790;28;20463;-51
2023/07/04 06:09:22;;;;;;;12.67;5.03;;;;;;;;;;5050912;28;20405;-50
2023/07/04 06:11:49;;;;;;;16.83;5.30;;;;;;;;;;5050984;28;20488;-45
2023/07/04 06:14:22;;;;;;;15.63;5.10;;;;;;;;;;5051244;28;20409;-47
2023/07/04 06:16:48;;;;;;;12.50;4.70;;;;;;;;;;5050865;28;20400;-45
2023/07/04 06:19:13;;;;;;;10.87;4.50;;;;;;;;;;5050728;28;20451;-46
2023/07/04 06:21:39;;;;;;;13.63;4.70;;;;;;;;;;5050714;28;20407;-47
2023/07/04 06:24:06;;;;;;;18.70;5.80;;;;;;;;;;5050857;28;20951;-48
2023/07/04 06:26:32;;;;;;;20.00;5.80;;;;;;;;;;5051822;28;20409;-48
2023/07/04 06:28:59;;;;;;;9.27;4.97;;;;;;;;;;5054546;28;20384;-45
2023/07/04 06:31:25;;;;;;;14.83;4.93;;;;;;;;;;5054077;28;20413;-45
2023/07/04 06:33:51;;;;;;;13.33;5.73;;;;;;;;;;5054147;28;20539;-45
2023/07/04 06:36:17;;;;;;;13.27;5.27;;;;;;;;;;5051660;28;20883;-45
2023/07/04 06:38:44;;;;;;;12.53;5.50;;;;;;;;;;5054248;28;20962;-45
2023/07/04 06:41:12;;;;;;;9.97;5.83;;;;;;;;;;5054069;28;20381;-45
2023/07/04 06:43:40;;;;;;;9.17;5.40;;;;;;;;;;5046062;28;20404;-45
2023/07/04 06:46:06;;;;;;;17.50;6.30;;;;;;;;;;5054149;28;20405;-45
2023/07/04 06:48:32;;;;;;;16.53;7.10;;;;;;;;;;5059439;28;20916;-46
2023/07/04 06:51:06;;;;;;;12.70;5.03;;;;;;;;;;5038995;28;20393;-45
2023/07/04 06:53:34;;;;;;;12.60;5.20;;;;;;;;;;5053835;28;21451;-50
2023/07/04 06:56:13;;;;;;;14.80;5.30;;;;;;;;;;5054149;28;20850;-51
2023/07/04 06:58:40;;;;;;;9.37;4.90;;;;;;;;;;5053357;28;20935;-50
2023/07/04 07:01:07;;;;;;;16.30;5.80;;;;;;;;;;5053652;28;20405;-50
2023/07/04 07:03:33;;;;;;;16.63;4.90;;;;;;;;;;5053675;28;20443;-51
2023/07/04 07:06:03;;;;;;;9.07;4.70;;;;;;;;;;5053886;28;20949;-51
2023/07/04 07:08:30;;;;;;;8.73;4.50;;;;;;;;;;5053672;28;20408;-50
2023/07/04 07:11:01;;;;;;;15.13;5.93;;;;;;;;;;5053514;28;20417;-50
2023/07/04 07:13:27;;;;;;;10.20;5.07;;;;;;;;;;5053589;28;20431;-50
2023/07/04 07:16:04;;;;;;;10.23;5.03;;;;;;;;;;5054039;28;20369;-50
2023/07/04 07:18:32;;;;;;;7.47;5.10;;;;;;;;;;5053626;28;20479;-50
2023/07/04 07:20:58;;;;;;;17.67;5.20;;;;;;;;;;5053351;28;20877;-49
2023/07/04 07:23:24;;;;;;;11.10;5.03;;;;;;;;;;5053416;28;20413;-49
2023/07/04 07:25:54;;;;;;;9.20;4.50;;;;;;;;;;5053424;28;20380;-50
2023/07/04 07:28:20;;;;;;;14.00;4.17;;;;;;;;;;5053281;28;20408;-49
2023/07/04 07:30:46;;;;;;;11.63;3.80;;;;;;;;;;5053439;28;20384;-51
2023/07/04 07:33:12;;;;;;;7.33;4.40;;;;;;;;;;5052009;28;20430;-50
2023/07/04 07:35:39;;;;;;;15.03;5.00;;;;;;;;;;5052068;28;20380;-51
2023/07/04 07:38:05;;;;;;;12.43;5.20;;;;;;;;;;5052016;28;20424;-50
2023/07/04 07:40:31;;;;;;;11.10;5.13;;;;;;;;;;5052876;28;20883;-49
2023/07/04 07:42:57;;;;;;;7.77;4.53;;;;;;;;;;5053118;28;20834;-52
2023/07/04 07:45:23;;;;;;;12.80;5.10;;;;;;;;;;5053083;28;20447;-51
2023/07/04 07:47:49;;;;;;;16.87;4.30;;;;;;;;;;5046299;28;20434;-51
2023/07/04 07:50:14;;;;;;;10.13;4.90;;;;;;;;;;5052554;28;20412;-52
2023/07/04 07:52:40;;;;;;;13.77;4.67;;;;;;;;;;5052925;28;20436;-52
2023/07/04 07:55:06;;;;;;;15.27;4.90;;;;;;;;;;5052685;28;20963;-50
2023/07/04 07:57:32;;;;;;;10.87;5.40;;;;;;;;;;5052814;28;20963;-51
2023/07/04 07:59:59;;;;;;;5.87;4.00;;;;;;;;;;5052549;28;20381;-50
2023/07/04 08:02:25;;;;;;;9.03;4.50;;;;;;;;;;5052715;28;20449;-50
2023/07/04 08:04:51;;;;;;;12.33;4.57;;;;;;;;;;5052596;28;20439;-51
2023/07/04 08:07:17;;;;;;;8.73;4.60;;;;;;;;;;5052137;28;20445;-49
2023/07/04 08:09:43;;;;;;;11.13;4.00;;;;;;;;;;5052412;28;20412;-48
2023/07/04 08:12:09;;;;;;;14.47;4.77;;;;;;;;;;5052540;28;20440;-49
2023/07/04 08:14:35;;;;;;;13.37;4.30;;;;;;;;;;5052676;28;20464;-51
2023/07/04 08:17:01;;;;;;;12.47;4.80;;;;;;;;;;5052395;28;20426;-49
2023/07/04 08:19:27;;;;;;;7.57;4.00;;;;;;;;;;5059040;28;20374;-51
2023/07/04 08:21:54;;;;;;;8.27;4.80;;;;;;;;;;5052239;28;20407;-51
2023/07/04 08:24:20;;;;;;;11.87;4.43;;;;;;;;;;5052352;28;20382;-49
2023/07/04 08:26:47;;;;;;;6.70;3.97;;;;;;;;;;5052306;28;20454;-50
2023/07/04 08:29:13;;;;;;;10.27;3.43;;;;;;;;;;5052286;28;20923;-51
2023/07/04 08:31:40;;;;;;;8.87;3.70;;;;;;;;;;5051991;28;20439;-51
2023/07/04 08:34:06;;;;;;;8.83;3.60;;;;;;;;;;5052003;28;21042;-51
2023/07/04 08:36:32;;;;;;;9.33;3.70;;;;;;;;;;5051901;28;20436;-51
2023/07/04 08:38:58;;;;;;;8.37;3.07;;;;;;;;;;5052150;28;20409;-50
2023/07/04 08:41:40;;;;;;;6.10;3.73;;;;;;;;;;5053068;28;20444;-51
2023/07/04 08:44:08;;;;;;;9.23;3.40;;;;;;;;;;5043031;28;20419;-45
2023/07/04 08:46:40;;;;;;;10.93;3.27;;;;;;;;;;5051258;28;20785;-48
2023/07/04 08:49:08;;;;;;;15.50;3.60;;;;;;;;;;5051478;28;20814;-49
2023/07/04 08:51:46;;;;;;;8.80;3.13;;;;;;;;;;5051671;28;20917;-48
2023/07/04 08:54:12;;;;;;;6.87;3.40;;;;;;;;;;5046204;28;20976;-48
2023/07/04 08:56:39;;;;;;;12.00;3.80;;;;;;;;;;5049791;28;20408;-48
2023/07/04 08:59:23;;;;;;;5.17;3.20;;;;;;;;;;5051551;28;20393;-45
2023/07/04 09:01:58;;;;;;;11.10;3.37;;;;;;;;;;5046378;28;20455;-49
2023/07/04 09:04:36;;;;;;;7.73;3.10;;;;;;;;;;5051541;28;20492;-49
2023/07/04 09:07:20;;;;;;;7.43;3.03;;;;;;;;;;5050414;28;20448;-49
2023/07/04 09:09:54;;;;;;;7.33;3.60;;;;;;;;;;5051350;28;20475;-48
2023/07/04 09:12:20;;;;;;;9.93;3.17;;;;;;;;;;5050465;28;20961;-49
2023/07/04 09:14:56;;;;;;;8.43;3.20;;;;;;;;;;5051504;28;20409;-49
2023/07/04 09:17:42;;;;;;;8.03;2.57;;;;;;;;;;5051306;28;20784;-49
2023/07/04 09:20:09;;;;;;;4.57;2.90;;;;;;;;;;5049789;28;20417;-49
2023/07/04 09:22:35;;;;;;;4.20;2.67;;;;;;;;;;5051365;28;20445;-49
2023/07/04 09:25:03;;;;;;;7.60;2.77;;;;;;;;;;5051218;28;20421;-50
2023/07/04 09:27:29;;;;;;;5.03;2.80;;;;;;;;;;5051452;28;20441;-49
2023/07/04 09:29:56;;;;;;;9.83;3.10;;;;;;;;;;5051111;28;20420;-50
2023/07/04 09:32:22;;;;;;;4.97;2.97;;;;;;;;;;5051229;28;20449;-52
2023/07/04 09:34:49;;;;;;;6.27;2.90;;;;;;;;;;5051492;28;20440;-51
2023/07/04 09:37:17;;;;;;;8.33;2.63;;;;;;;;;;5051546;28;20460;-51
2023/07/04 09:40:00;;;;;;;7.60;3.10;;;;;;;;;;5051069;28;20409;-48
2023/07/04 09:42:32;;;;;;;5.97;2.50;;;;;;;;;;5051354;28;20439;-48
2023/07/04 09:45:04;;;;;;;4.10;2.83;;;;;;;;;;5051241;28;20524;-48
2023/07/04 09:47:30;;;;;;;4.27;2.57;;;;;;;;;;5050921;28;20445;-48
2023/07/04 09:50:16;;;;;;;6.43;2.40;;;;;;;;;;5050758;28;20422;-48
2023/07/04 09:52:42;;;;;;;4.50;3.00;;;;;;;;;;5051062;28;20449;-48
2023/07/04 09:55:16;;;;;;;11.23;2.57;;;;;;;;;;5051118;28;20413;-48
2023/07/04 09:57:42;;;;;;;4.50;2.93;;;;;;;;;;5051056;28;20451;-48
2023/07/04 10:00:18;;;;;;;5.90;2.57;;;;;;;;;;5050944;28;20402;-48
2023/07/04 10:02:45;;;;;;;5.70;2.30;;;;;;;;;;5054145;28;20489;-49
2023/07/04 10:05:22;;;;;;;7.63;2.27;;;;;;;;;;5054926;28;20454;-48
2023/07/04 10:07:59;;;;;;;4.60;2.43;;;;;;;;;;5054826;28;20446;-49
2023/07/04 10:10:26;;;;;;;3.27;2.50;;;;;;;;;;5054552;28;20413;-48
2023/07/04 10:12:52;;;;;;;6.40;2.57;;;;;;;;;;5054672;28;20468;-48
2023/07/04 10:15:36;;;;;;;9.90;2.90;;;;;;;;;;5054740;28;20780;-48
2023/07/04 10:18:03;;;;;;;4.17;2.30;;;;;;;;;;5054654;28;20989;-48
2023/07/04 10:20:35;;;;;;;5.57;2.77;;;;;;;;;;5054346;28;20423;-48
2023/07/04 10:23:01;;;;;;;4.33;2.53;;;;;;;;;;5054498;28;20425;-50
2023/07/04 10:25:29;;;;;;;6.73;2.90;;;;;;;;;;5054932;28;20455;-49
2023/07/04 10:28:08;;;;;;;5.30;2.77;;;;;;;;;;5036584;28;20443;-49
2023/07/04 10:30:35;;;;;;;5.33;2.00;;;;;;;;;;5054304;28;20407;-50
2023/07/04 10:33:10;;;;;;;6.97;3.00;;;;;;;;;;5054292;28;20486;-48
2023/07/04 10:35:39;;;;;;;4.97;2.63;;;;;;;;;;5054355;28;20423;-48
2023/07/04 10:38:08;;;;;;;9.93;2.90;;;;;;;;;;5054494;28;20934;-48
2023/07/04 10:40:36;;;;;;;8.37;2.90;;;;;;;;;;5054152;28;20413;-48
2023/07/04 10:43:02;;;;;;;3.97;2.67;;;;;;;;;;5054146;28;20413;-50
2023/07/04 10:45:29;;;;;;;5.30;2.83;;;;;;;;;;5054083;28;20421;-48
2023/07/04 10:48:00;;;;;;;4.30;3.13;;;;;;;;;;5053983;28;20999;-48
2023/07/04 10:50:28;;;;;;;7.80;3.53;;;;;;;;;;5053887;28;20866;-48
2023/07/04 10:52:54;;;;;;;3.93;2.70;;;;;;;;;;5053946;28;20827;-49
2023/07/04 10:55:43;;;;;;;9.20;2.50;;;;;;;;;;5054108;28;20405;-48
2023/07/04 10:58:11;;;;;;;4.03;2.50;;;;;;;;;;5053712;28;20452;-48
2023/07/04 11:00:46;;;;;;;10.50;3.77;;;;;;;;;;5054067;28;20895;-48
2023/07/04 11:03:22;;;;;;;9.83;2.43;;;;;;;;;;5053983;28;20499;-48
2023/07/04 11:05:50;;;;;;;7.13;3.00;;;;;;;;;;5053628;28;20462;-48
2023/07/04 11:08:18;;;;;;;4.20;2.37;;;;;;;;;;5053555;28;20440;-47
2023/07/04 11:10:45;;;;;;;7.10;2.77;;;;;;;;;;5053356;28;20409;-48
2023/07/04 11:13:16;;;;;;;4.00;2.17;;;;;;;;;;5053585;28;20963;-48
2023/07/04 11:15:42;;;;;;;2.97;2.00;;;;;;;;;;5053502;28;20397;-49
2023/07/04 11:18:09;;;;;;;3.57;2.70;;;;;;;;;;5053631;28;20456;-49
2023/07/04 11:20:38;;;;;;;4.20;2.60;;;;;;;;;;5052710;28;20410;-48
2023/07/04 11:23:12;;;;;;;12.00;2.73;;;;;;;;;;5053394;28;20420;-51
2023/07/04 11:25:41;;;;;;;5.60;2.40;;;;;;;;;;5054199;28;20417;-48
2023/07/04 11:28:42;;;;;;;5.53;2.33;;;;;;;;;;5051638;28;20447;-48
2023/07/04 11:31:30;;;;;;;4.10;2.23;;;;;;;;;;5052489;28;20497;-46
2023/07/04 11:33:56;;;;;;;4.80;2.03;;;;;;;;;;5055627;28;20500;-46
2023/07/04 11:36:37;;;;;;;5.40;2.33;;;;;;;;;;5053177;28;20837;-46
2023/07/04 11:39:04;;;;;;;4.27;2.40;;;;;;;;;;5052939;28;20412;-51
2023/07/04 11:41:37;;;;;;;2.70;1.93;;;;;;;;;;5051772;28;20863;-47
2023/07/04 11:44:12;;;;;;;3.53;2.17;;;;;;;;;;5052568;28;20903;-48
2023/07/04 11:46:38;;;;;;;18.20;3.17;;;;;;;;;;5053073;28;20450;-48
2023/07/04 11:49:05;;;;;;;6.73;2.27;;;;;;;;;;5052884;28;20412;-48
2023/07/04 11:51:32;;;;;;;4.80;2.50;;;;;;;;;;5052937;28;20409;-47
2023/07/04 11:54:00;;;;;;;4.37;2.40;;;;;;;;;;5052789;28;20461;-46
2023/07/04 11:56:26;;;;;;;8.30;2.07;;;;;;;;;;5052648;28;20406;-46
2023/07/04 11:59:11;;;;;;;3.80;1.90;;;;;;;;;;5052946;28;20421;-46
2023/07/04 12:01:52;;;;;;;2.90;2.60;;;;;;;;;;5052648;28;20928;-50
2023/07/04 12:04:22;;;;;;;3.37;2.30;;;;;;;;;;5052751;28;20424;-46
2023/07/04 12:06:50;;;;;;;6.07;2.47;;;;;;;;;;5052477;28;20530;-48
2023/07/04 12:09:22;;;;;;;10.57;3.30;;;;;;;;;;5052463;28;20401;-47
2023/07/04 12:11:49;;;;;;;5.83;2.80;;;;;;;;;;5052606;28;20397;-48
2023/07/04 12:14:16;;;;;;;7.40;2.50;;;;;;;;;;5052501;28;20433;-46
2023/07/04 12:16:44;;;;;;;5.17;3.03;;;;;;;;;;5052488;28;20397;-48
2023/07/04 12:19:14;;;;;;;8.30;3.50;;;;;;;;;;5060321;28;20415;-45
2023/07/04 12:21:42;;;;;;;214.60;27.57;;;;;;;;;;5047252;28;20402;-48
2023/07/04 12:24:08;;;;;;;6.50;3.27;;;;;;;;;;5051803;28;20401;-46
2023/07/04 12:26:34;;;;;;;15.53;4.10;;;;;;;;;;5052204;28;20416;-47
2023/07/04 12:29:04;;;;;;;5.93;3.00;;;;;;;;;;5052223;28;20484;-47
2023/07/04 12:31:30;;;;;;;5.90;3.00;;;;;;;;;;5052007;28;20907;-46
2023/07/04 12:33:56;;;;;;;6.60;3.40;;;;;;;;;;5052074;28;20449;-46
2023/07/04 12:36:31;;;;;;;10.87;3.70;;;;;;;;;;5052195;28;20409;-48
2023/07/04 12:38:57;;;;;;;13.97;5.70;;;;;;;;;;5052190;28;20770;-46
2023/07/04 12:41:24;;;;;;;22.70;6.27;;;;;;;;;;5051755;28;20507;-46
2023/07/04 12:44:01;;;;;;;8.63;3.37;;;;;;;;;;5052010;28;20405;-47
2023/07/04 12:46:29;;;;;;;8.23;3.43;;;;;;;;;;5051754;28;20421;-46
2023/07/04 12:48:56;;;;;;;4.53;3.93;;;;;;;;;;5051894;28;20401;-46
2023/07/04 12:51:25;;;;;;;10.53;3.93;;;;;;;;;;5051695;28;20496;-46
2023/07/04 12:53:51;;;;;;;3.97;3.17;;;;;;;;;;5051750;28;20461;-45
2023/07/04 12:56:17;;;;;;;13.40;3.77;;;;;;;;;;5051758;28;20765;-48
2023/07/04 12:58:44;;;;;;;8.23;3.67;;;;;;;;;;5051779;28;20440;-46
2023/07/04 13:01:13;;;;;;;8.90;3.57;;;;;;;;;;5051479;28;20405;-46
2023/07/04 13:03:43;;;;;;;5.47;3.13;;;;;;;;;;5051727;28;20410;-46
2023/07/04 13:06:09;;;;;;;7.50;3.50;;;;;;;;;;5051675;28;20417;-46
2023/07/04 13:08:43;;;;;;;8.00;3.80;;;;;;;;;;5051481;28;20421;-47
2023/07/04 13:11:09;;;;;;;4.53;3.70;;;;;;;;;;5051395;28;20417;-46
2023/07/04 13:13:35;;;;;;;7.43;3.80;;;;;;;;;;5051867;28;20449;-46
2023/07/04 13:16:20;;;;;;;9.53;3.70;;;;;;;;;;5051609;28;20406;-46
2023/07/04 13:18:48;;;;;;;4.90;3.23;;;;;;;;;;5044368;28;20504;-46
2023/07/04 13:21:28;;;;;;;6.97;3.90;;;;;;;;;;5051262;28;20404;-46
2023/07/04 13:23:54;;;;;;;6.77;3.57;;;;;;;;;;5051340;28;20526;-47
2023/07/04 13:26:25;;;;;;;20.67;5.73;;;;;;;;;;5051293;28;20503;-46
2023/07/04 13:28:53;;;;;;;13.03;4.37;;;;;;;;;;5051378;28;20946;-47
2023/07/04 13:31:30;;;;;;;7.10;4.17;;;;;;;;;;5051093;28;20413;-46
2023/07/04 13:33:57;;;;;;;14.70;5.13;;;;;;;;;;5051351;28;20467;-46
2023/07/04 13:36:33;;;;;;;14.37;5.20;;;;;;;;;;5052349;28;20754;-47
2023/07/04 13:38:59;;;;;;;10.63;3.90;;;;;;;;;;5055660;28;20401;-47
2023/07/04 13:41:25;;;;;;;6.03;4.10;;;;;;;;;;5055179;28;20405;-47
2023/07/04 13:43:51;;;;;;;5.83;4.33;;;;;;;;;;5055384;28;20459;-46
2023/07/04 13:46:18;;;;;;;5.90;4.10;;;;;;;;;;5055269;28;20417;-47
2023/07/04 13:48:44;;;;;;;9.47;3.97;;;;;;;;;;5055318;28;20439;-47
2023/07/04 13:51:10;;;;;;;4.83;3.70;;;;;;;;;;5054973;28;20417;-46
2023/07/04 13:53:36;;;;;;;10.87;5.10;;;;;;;;;;5055007;28;20472;-46
2023/07/04 13:56:02;;;;;;;7.07;4.10;;;;;;;;;;5055209;28;20413;-46
2023/07/04 13:58:28;;;;;;;8.93;4.10;;;;;;;;;;5054988;28;20973;-46
2023/07/04 14:00:54;;;;;;;6.27;4.17;;;;;;;;;;5054985;28;20429;-46
2023/07/04 14:03:20;;;;;;;6.67;4.17;;;;;;;;;;5055071;28;20409;-46
2023/07/04 14:05:46;;;;;;;8.93;4.60;;;;;;;;;;5054899;28;20412;-46
2023/07/04 14:08:13;;;;;;;4.87;4.23;;;;;;;;;;5054732;28;20437;-50
2023/07/04 14:10:39;;;;;;;14.33;5.00;;;;;;;;;;5054686;28;20409;-45
2023/07/04 14:13:05;;;;;;;7.30;5.50;;;;;;;;;;5054811;28;20973;-46
2023/07/04 14:15:32;;;;;;;5.13;4.63;;;;;;;;;;5054841;28;20413;-46
2023/07/04 14:18:02;;;;;;;264.40;36.33;;;;;;;;;;5054683;28;20421;-46
2023/07/04 14:20:28;;;;;;;54.80;13.57;;;;;;;;;;5054434;28;20522;-47
2023/07/04 14:22:54;;;;;;;7.93;5.70;;;;;;;;;;5054746;28;20462;-46
2023/07/04 14:25:20;;;;;;;7.40;5.23;;;;;;;;;;5054702;28;20409;-46
2023/07/04 14:27:46;;;;;;;17.27;5.83;;;;;;;;;;5054600;28;20433;-46
2023/07/04 14:30:12;;;;;;;16.30;6.43;;;;;;;;;;5054229;28;20523;-52
2023/07/04 14:32:38;;;;;;;16.43;6.13;;;;;;;;;;5054335;28;20451;-46
2023/07/04 14:35:05;;;;;;;8.63;5.73;;;;;;;;;;5054801;28;20906;-48
2023/07/04 14:37:31;;;;;;;12.80;6.23;;;;;;;;;;5054286;28;20429;-46
2023/07/04 14:39:57;;;;;;;16.50;6.40;;;;;;;;;;5054178;28;20952;-45
2023/07/04 14:42:23;;;;;;;7.47;5.90;;;;;;;;;;5052517;28;20441;-45
2023/07/04 14:44:49;;;;;;;26.00;7.93;;;;;;;;;;5054289;28;20906;-46